createdAt,value
2022-12-16T00:04:16.744Z,31.26
2022-12-16T00:09:23.635Z,37.38
2022-12-16T00:14:29.996Z,37.45
2022-12-16T00:19:37.693Z,41.40
2022-12-16T00:24:44.470Z,42.13
2022-12-16T00:29:50.830Z,41.97
2022-12-16T00:34:57.149Z,40.33
2022-12-16T00:40:03.533Z,31.73
2022-12-16T00:45:10.973Z,40.88
2022-12-16T00:50:18.796Z,45.03
2022-12-16T00:55:25.965Z,47.33
2022-12-16T01:00:32.202Z,43.03
2022-12-16T01:05:40.733Z,44.23
2022-12-16T01:10:58.765Z,46.43
2022-12-16T01:16:06.105Z,40.77
2022-12-16T01:21:16.025Z,41.60
2022-12-16T01:26:23.568Z,35.17
2022-12-16T01:31:30.464Z,39.15
2022-12-16T01:36:37.093Z,36.93
2022-12-16T01:41:45.336Z,31.47
2022-12-16T01:47:01.882Z,33.93
2022-12-16T01:57:21.961Z,33.43
2022-12-16T02:02:29.019Z,35.47
2022-12-16T02:07:36.426Z,34.87
2022-12-16T02:13:11.106Z,33.80
2022-12-16T02:18:50.828Z,33.63
2022-12-16T02:24:19.182Z,34.27
2022-12-16T02:29:45.700Z,32.90
2022-12-16T02:35:14.300Z,32.60
2022-12-16T02:40:34.623Z,33.05
2022-12-16T02:45:42.022Z,31.07
2022-12-16T02:50:51.695Z,35.53
2022-12-16T02:56:11.875Z,35.73
2022-12-16T03:01:43.624Z,38.03
2022-12-16T03:06:52.522Z,33.37
2022-12-16T03:12:02.538Z,39.37
2022-12-16T03:17:10.728Z,41.60
2022-12-16T03:22:27.309Z,38.60
2022-12-16T03:27:44.295Z,36.14
2022-12-16T03:33:08.001Z,33.13
2022-12-16T03:38:15.855Z,32.48
2022-12-16T03:43:22.847Z,39.73
2022-12-16T03:48:29.188Z,42.80
2022-12-16T03:53:36.097Z,42.88
2022-12-16T03:58:42.819Z,43.43
2022-12-16T04:03:49.954Z,40.35
2022-12-16T04:14:19.602Z,42.17
2022-12-16T04:19:51.014Z,38.90
2022-12-16T04:24:57.774Z,40.13
2022-12-16T04:30:22.743Z,37.20
2022-12-16T04:35:46.441Z,40.80
2022-12-16T04:41:10.191Z,41.63
2022-12-16T04:46:34.742Z,31.42
2022-12-16T04:51:58.738Z,28.87
2022-12-16T04:57:22.918Z,27.33
2022-12-16T05:02:47.434Z,28.85
2022-12-16T05:08:12.168Z,28.37
2022-12-16T05:13:37.386Z,29.27
2022-12-16T05:19:01.721Z,28.97
2022-12-16T05:24:25.812Z,30.80
2022-12-16T05:29:49.823Z,29.07
2022-12-16T05:35:13.906Z,30.67
2022-12-16T05:40:37.916Z,32.40
2022-12-16T05:46:02.551Z,32.17
2022-12-16T05:51:26.358Z,33.77
2022-12-16T05:56:51.290Z,33.50
2022-12-16T06:02:16.061Z,33.67
2022-12-16T06:07:40.593Z,32.23
2022-12-16T06:13:06.454Z,35.10
2022-12-16T06:18:31.192Z,35.63
2022-12-16T06:23:54.846Z,36.07
2022-12-16T06:29:18.710Z,37.03
2022-12-16T06:34:43.187Z,36.80
2022-12-16T06:40:07.634Z,39.20
2022-12-16T06:45:34.871Z,34.53
2022-12-16T06:50:58.964Z,34.53
2022-12-16T06:56:23.214Z,35.40
2022-12-16T07:01:47.694Z,34.15
2022-12-16T07:07:12.619Z,35.77
2022-12-16T07:12:36.952Z,36.05
2022-12-16T07:18:01.308Z,34.00
2022-12-16T07:23:25.159Z,35.17
2022-12-16T07:28:50.032Z,36.73
2022-12-16T07:34:14.131Z,37.60
2022-12-16T07:39:38.468Z,41.50
2022-12-16T07:45:02.578Z,39.15
2022-12-16T07:50:27.105Z,40.87
2022-12-16T07:55:50.958Z,38.44
2022-12-16T08:01:15.439Z,35.73
2022-12-16T08:06:40.535Z,38.97
2022-12-16T08:12:04.343Z,40.10
2022-12-16T08:17:28.649Z,38.77
2022-12-16T08:22:52.899Z,38.23
2022-12-16T08:28:18.616Z,39.30
2022-12-16T08:33:43.285Z,42.05
2022-12-16T08:39:07.777Z,41.70
2022-12-16T08:44:33.244Z,41.70
2022-12-16T08:49:59.871Z,41.27
2022-12-16T08:55:27.776Z,38.57
2022-12-16T09:00:48.785Z,42.67
2022-12-16T09:06:17.928Z,41.77
2022-12-16T09:11:42.102Z,45.60
2022-12-16T09:17:07.195Z,47.67
2022-12-16T09:22:31.262Z,38.70
2022-12-16T09:27:55.273Z,43.85
2022-12-16T09:33:22.263Z,44.37
2022-12-16T09:38:46.827Z,45.30
2022-12-16T09:44:18.611Z,46.30
2022-12-16T09:50:05.683Z,47.23
2022-12-16T09:55:47.112Z,47.67
2022-12-16T10:01:10.848Z,49.63
2022-12-16T10:07:01.642Z,48.37
2022-12-16T10:12:58.287Z,50.43
2022-12-16T10:18:26.323Z,52.10
2022-12-16T10:24:01.359Z,55.03
2022-12-16T10:29:40.840Z,53.13
2022-12-16T10:35:04.922Z,53.47
2022-12-16T10:40:34.495Z,51.40
2022-12-16T10:46:02.561Z,50.27
2022-12-16T10:51:34.313Z,31.17
2022-12-16T10:57:20.502Z,44.60
2022-12-16T11:02:46.896Z,45.90
2022-12-16T11:08:13.461Z,43.42
2022-12-16T11:13:45.498Z,50.33
2022-12-16T11:19:11.016Z,42.93
2022-12-16T11:24:39.049Z,48.13
2022-12-16T11:30:12.987Z,46.20
2022-12-16T11:35:41.682Z,43.35
2022-12-16T11:41:09.593Z,49.87
2022-12-16T11:46:49.017Z,46.27
2022-12-16T11:57:46.527Z,44.57
2022-12-16T12:03:18.428Z,46.05
2022-12-16T12:09:06.639Z,46.77
2022-12-16T12:14:47.047Z,44.93
2022-12-16T12:20:15.575Z,41.90
2022-12-16T12:25:56.211Z,46.07
2022-12-16T12:31:49.285Z,44.00
2022-12-16T12:37:45.304Z,46.97
2022-12-16T12:43:15.521Z,47.10
2022-12-16T12:48:53.017Z,48.23
2022-12-16T12:54:44.047Z,44.67
2022-12-16T13:00:21.115Z,48.17
2022-12-16T13:05:49.450Z,47.40
2022-12-16T13:11:17.802Z,47.33
2022-12-16T13:17:17.993Z,49.25
2022-12-16T13:22:55.046Z,48.47
2022-12-16T13:28:18.837Z,44.30
2022-12-16T13:33:47.152Z,42.97
2022-12-16T13:39:18.058Z,43.70
2022-12-16T13:45:05.576Z,44.93
2022-12-16T13:56:21.129Z,41.28
2022-12-16T14:02:08.376Z,44.20
2022-12-16T14:07:35.875Z,44.46
2022-12-16T14:13:13.545Z,43.95
2022-12-16T14:18:53.740Z,33.70
2022-12-16T14:24:20.719Z,45.20
2022-12-16T14:29:50.339Z,49.65
2022-12-16T14:35:12.388Z,44.33
2022-12-16T14:40:43.269Z,47.03
2022-12-16T14:46:09.528Z,45.43
2022-12-16T14:51:49.417Z,41.23
2022-12-16T14:57:16.744Z,41.67
2022-12-16T15:02:54.281Z,41.77
2022-12-16T15:08:19.942Z,39.40
2022-12-16T15:13:46.126Z,41.37
2022-12-16T15:19:14.428Z,36.70
2022-12-16T15:24:41.900Z,40.03
2022-12-16T15:35:55.057Z,40.33
2022-12-16T15:41:22.169Z,40.30
2022-12-16T15:46:48.953Z,42.27
2022-12-16T15:52:13.198Z,46.02
2022-12-16T15:57:52.539Z,40.67
2022-12-16T16:03:16.719Z,40.73
2022-12-16T16:08:43.664Z,45.90
2022-12-16T16:14:13.969Z,43.00
2022-12-16T16:19:40.455Z,45.97
2022-12-16T16:25:04.542Z,41.73
2022-12-16T16:30:30.377Z,42.17
2022-12-16T16:35:54.922Z,40.67
2022-12-16T16:41:19.415Z,39.80
2022-12-16T16:46:59.299Z,50.73
2022-12-16T16:52:23.348Z,39.60
2022-12-16T16:57:53.249Z,39.37
2022-12-16T17:03:17.464Z,38.13
2022-12-16T17:08:42.970Z,41.73
2022-12-16T17:14:08.036Z,44.53
2022-12-16T17:19:33.299Z,42.83
2022-12-16T17:24:58.011Z,44.77
2022-12-16T17:30:22.407Z,48.07
2022-12-16T17:35:46.843Z,46.77
2022-12-16T17:41:12.722Z,42.13
2022-12-16T17:46:36.993Z,37.53
2022-12-16T17:52:01.960Z,45.00
2022-12-16T17:57:28.292Z,42.90
2022-12-16T18:02:53.371Z,44.75
2022-12-16T18:08:18.123Z,44.77
2022-12-16T18:13:42.646Z,41.05
2022-12-16T18:19:09.900Z,45.23
2022-12-16T18:24:33.999Z,40.27
2022-12-16T18:29:58.745Z,39.73
2022-12-16T18:35:23.039Z,38.93
2022-12-16T18:40:47.437Z,43.15
2022-12-16T18:46:13.691Z,41.53
2022-12-16T18:51:37.978Z,45.53
2022-12-16T18:57:02.040Z,44.90
2022-12-16T19:02:27.647Z,44.07
2022-12-16T19:07:53.776Z,50.28
2022-12-16T19:13:19.753Z,51.63
2022-12-16T19:18:44.779Z,45.45
2022-12-16T19:24:05.747Z,53.57
2022-12-16T19:29:29.399Z,45.47
2022-12-16T19:34:56.740Z,45.03
2022-12-16T19:40:23.145Z,45.28
2022-12-16T19:45:47.948Z,48.02
2022-12-16T19:51:18.215Z,48.30
2022-12-16T19:56:43.397Z,48.57
2022-12-16T20:02:08.500Z,43.80
2022-12-16T20:07:34.460Z,47.17
2022-12-16T20:12:58.942Z,41.83
2022-12-16T20:18:25.763Z,44.73
2022-12-16T20:23:50.598Z,44.85
2022-12-16T20:29:16.646Z,46.10
2022-12-16T20:34:41.832Z,47.15
2022-12-16T20:40:07.211Z,45.60
2022-12-16T20:45:32.543Z,47.87
2022-12-16T20:50:56.803Z,49.40
2022-12-16T20:56:21.799Z,48.27
2022-12-16T21:02:01.562Z,45.78
2022-12-16T21:07:14.203Z,47.53
2022-12-16T21:12:38.073Z,46.67
2022-12-16T21:18:01.981Z,44.97
2022-12-16T21:23:27.609Z,43.93
2022-12-16T21:28:52.509Z,45.83
2022-12-16T21:34:19.291Z,47.47
2022-12-16T21:39:44.399Z,47.78
2022-12-16T21:45:08.660Z,50.90
2022-12-16T21:50:34.114Z,50.92
2022-12-16T21:55:58.649Z,52.20
2022-12-16T22:01:23.492Z,45.80
2022-12-16T22:06:49.122Z,51.37
2022-12-16T22:12:13.238Z,49.90
2022-12-16T22:17:37.946Z,53.10
2022-12-16T22:23:01.731Z,54.73
2022-12-16T22:28:27.101Z,57.70
2022-12-16T22:33:52.968Z,56.53
2022-12-16T22:39:18.189Z,53.73
2022-12-16T22:44:43.154Z,59.57
2022-12-16T22:50:07.499Z,46.67
2022-12-16T22:55:31.602Z,48.83
2022-12-16T23:00:56.509Z,50.65
2022-12-16T23:06:21.229Z,47.87
2022-12-16T23:11:51.802Z,47.10
2022-12-16T23:17:16.095Z,47.17
2022-12-16T23:22:40.151Z,47.03
2022-12-16T23:28:04.211Z,48.70
2022-12-16T23:33:27.836Z,47.13
2022-12-16T23:38:53.360Z,47.45
2022-12-16T23:44:17.094Z,46.20
2022-12-16T23:49:41.633Z,44.93
2022-12-16T23:55:06.517Z,50.17
